sensor_id;sensor_type;location;lat;lon;timestamp;temperature;humidity
7562;DHT22;3822;48.784;9.174;2023-04-03T00:01:05;7.50;83.10
7562;DHT22;3822;48.784;9.174;2023-04-03T00:03:33;7.50;83.00
7562;DHT22;3822;48.784;9.174;2023-04-03T00:06:00;7.50;83.10
7562;DHT22;3822;48.784;9.174;2023-04-03T00:08:27;7.60;83.10
7562;DHT22;3822;48.784;9.174;2023-04-03T00:10:58;7.60;82.70
7562;DHT22;3822;48.784;9.174;2023-04-03T00:13:24;7.60;82.80
7562;DHT22;3822;48.784;9.174;2023-04-03T00:15:51;7.60;82.80
7562;DHT22;3822;48.784;9.174;2023-04-03T00:18:17;7.60;82.70
7562;DHT22;3822;48.784;9.174;2023-04-03T00:20:47;7.50;82.40
7562;DHT22;3822;48.784;9.174;2023-04-03T00:23:15;7.50;82.60
7562;DHT22;3822;48.784;9.174;2023-04-03T00:25:45;7.60;82.60
7562;DHT22;3822;48.784;9.174;2023-04-03T00:28:11;7.60;82.50
7562;DHT22;3822;48.784;9.174;2023-04-03T00:30:38;7.60;82.50
7562;DHT22;3822;48.784;9.174;2023-04-03T00:33:04;7.60;82.40
7562;DHT22;3822;48.784;9.174;2023-04-03T00:35:33;7.60;82.10
7562;DHT22;3822;48.784;9.174;2023-04-03T00:38:00;7.60;82.30
7562;DHT22;3822;48.784;9.174;2023-04-03T00:40:32;7.60;82.10
7562;DHT22;3822;48.784;9.174;2023-04-03T00:43:00;7.60;82.10
7562;DHT22;3822;48.784;9.174;2023-04-03T00:45:37;7.50;81.90
7562;DHT22;3822;48.784;9.174;2023-04-03T00:48:05;7.50;82.10
7562;DHT22;3822;48.784;9.174;2023-04-03T00:50:52;7.50;81.80
7562;DHT22;3822;48.784;9.174;2023-04-03T00:53:22;7.40;81.70
7562;DHT22;3822;48.784;9.174;2023-04-03T00:55:57;7.40;81.80
7562;DHT22;3822;48.784;9.174;2023-04-03T00:58:30;7.40;82.00
7562;DHT22;3822;48.784;9.174;2023-04-03T01:01:00;7.40;82.10
7562;DHT22;3822;48.784;9.174;2023-04-03T01:03:39;7.30;82.10
7562;DHT22;3822;48.784;9.174;2023-04-03T01:06:12;7.30;82.10
7562;DHT22;3822;48.784;9.174;2023-04-03T01:08:39;7.20;82.00
7562;DHT22;3822;48.784;9.174;2023-04-03T01:11:05;7.20;82.30
7562;DHT22;3822;48.784;9.174;2023-04-03T01:13:37;7.10;82.30
7562;DHT22;3822;48.784;9.174;2023-04-03T01:16:04;7.10;82.30
7562;DHT22;3822;48.784;9.174;2023-04-03T01:18:33;7.10;82.60
7562;DHT22;3822;48.784;9.174;2023-04-03T01:26:38;7.10;82.30
7562;DHT22;3822;48.784;9.174;2023-04-03T01:29:05;7.10;82.50
7562;DHT22;3822;48.784;9.174;2023-04-03T01:34:00;7.20;82.50
7562;DHT22;3822;48.784;9.174;2023-04-03T01:36:30;7.20;82.60
7562;DHT22;3822;48.784;9.174;2023-04-03T01:39:02;8.50;83.80
7562;DHT22;3822;48.784;9.174;2023-04-03T01:41:31;7.20;82.60
7562;DHT22;3822;48.784;9.174;2023-04-03T01:43:59;7.20;82.50
7562;DHT22;3822;48.784;9.174;2023-04-03T01:46:26;7.20;82.40
7562;DHT22;3822;48.784;9.174;2023-04-03T01:48:52;7.20;82.50
7562;DHT22;3822;48.784;9.174;2023-04-03T01:51:18;7.70;82.90
7562;DHT22;3822;48.784;9.174;2023-04-03T01:53:46;7.20;82.10
7562;DHT22;3822;48.784;9.174;2023-04-03T01:56:12;7.20;82.30
7562;DHT22;3822;48.784;9.174;2023-04-03T01:58:38;7.20;82.40
7562;DHT22;3822;48.784;9.174;2023-04-03T02:01:04;7.20;82.30
7562;DHT22;3822;48.784;9.174;2023-04-03T02:03:34;7.20;82.30
7562;DHT22;3822;48.784;9.174;2023-04-03T02:06:03;7.20;82.30
7562;DHT22;3822;48.784;9.174;2023-04-03T02:08:33;7.10;82.30
7562;DHT22;3822;48.784;9.174;2023-04-03T02:10:59;7.10;82.20
7562;DHT22;3822;48.784;9.174;2023-04-03T02:13:25;7.10;82.50
7562;DHT22;3822;48.784;9.174;2023-04-03T02:15:57;7.10;82.30
7562;DHT22;3822;48.784;9.174;2023-04-03T02:18:24;7.00;82.40
7562;DHT22;3822;48.784;9.174;2023-04-03T02:20:51;7.00;82.50
7562;DHT22;3822;48.784;9.174;2023-04-03T02:23:17;7.10;82.60
7562;DHT22;3822;48.784;9.174;2023-04-03T02:25:52;7.10;82.50
7562;DHT22;3822;48.784;9.174;2023-04-03T02:28:21;7.10;82.30
7562;DHT22;3822;48.784;9.174;2023-04-03T02:30:47;7.00;82.20
7562;DHT22;3822;48.784;9.174;2023-04-03T02:33:13;7.10;82.10
7562;DHT22;3822;48.784;9.174;2023-04-03T02:35:40;7.10;81.70
7562;DHT22;3822;48.784;9.174;2023-04-03T02:38:09;7.10;81.80
7562;DHT22;3822;48.784;9.174;2023-04-03T02:40:35;7.00;81.00
7562;DHT22;3822;48.784;9.174;2023-04-03T02:43:04;7.00;80.90
7562;DHT22;3822;48.784;9.174;2023-04-03T02:45:33;7.00;81.20
7562;DHT22;3822;48.784;9.174;2023-04-03T02:48:02;7.00;81.00
7562;DHT22;3822;48.784;9.174;2023-04-03T02:50:28;7.00;80.80
7562;DHT22;3822;48.784;9.174;2023-04-03T02:52:57;7.00;80.80
7562;DHT22;3822;48.784;9.174;2023-04-03T02:55:24;7.00;80.90
7562;DHT22;3822;48.784;9.174;2023-04-03T02:57:57;7.00;81.00
7562;DHT22;3822;48.784;9.174;2023-04-03T03:00:24;7.00;81.00
7562;DHT22;3822;48.784;9.174;2023-04-03T03:02:52;7.00;80.70
7562;DHT22;3822;48.784;9.174;2023-04-03T03:05:19;7.00;80.50
7562;DHT22;3822;48.784;9.174;2023-04-03T03:07:48;6.90;80.10
7562;DHT22;3822;48.784;9.174;2023-04-03T03:10:22;6.80;80.10
7562;DHT22;3822;48.784;9.174;2023-04-03T03:12:49;6.90;80.50
7562;DHT22;3822;48.784;9.174;2023-04-03T03:15:15;6.90;80.50
7562;DHT22;3822;48.784;9.174;2023-04-03T03:17:46;6.90;80.40
7562;DHT22;3822;48.784;9.174;2023-04-03T03:20:12;6.90;80.30
7562;DHT22;3822;48.784;9.174;2023-04-03T03:22:42;6.90;80.50
7562;DHT22;3822;48.784;9.174;2023-04-03T03:25:22;7.00;80.50
7562;DHT22;3822;48.784;9.174;2023-04-03T03:27:50;8.20;81.30
7562;DHT22;3822;48.784;9.174;2023-04-03T03:30:25;7.00;80.40
7562;DHT22;3822;48.784;9.174;2023-04-03T03:32:51;7.00;80.30
7562;DHT22;3822;48.784;9.174;2023-04-03T03:35:18;7.10;80.30
7562;DHT22;3822;48.784;9.174;2023-04-03T03:37:47;7.10;80.20
7562;DHT22;3822;48.784;9.174;2023-04-03T03:40:13;7.10;80.10
7562;DHT22;3822;48.784;9.174;2023-04-03T03:42:42;7.10;79.80
7562;DHT22;3822;48.784;9.174;2023-04-03T03:45:08;7.00;79.40
7562;DHT22;3822;48.784;9.174;2023-04-03T03:47:38;7.00;79.70
7562;DHT22;3822;48.784;9.174;2023-04-03T03:50:08;7.00;79.30
7562;DHT22;3822;48.784;9.174;2023-04-03T03:52:34;6.90;79.20
7562;DHT22;3822;48.784;9.174;2023-04-03T03:55:00;6.90;79.40
7562;DHT22;3822;48.784;9.174;2023-04-03T03:57:33;6.90;79.40
7562;DHT22;3822;48.784;9.174;2023-04-03T04:00:00;6.90;79.60
7562;DHT22;3822;48.784;9.174;2023-04-03T04:02:30;6.90;79.50
7562;DHT22;3822;48.784;9.174;2023-04-03T04:04:56;6.90;79.30
7562;DHT22;3822;48.784;9.174;2023-04-03T04:07:23;6.90;79.40
7562;DHT22;3822;48.784;9.174;2023-04-03T04:09:49;6.90;79.10
7562;DHT22;3822;48.784;9.174;2023-04-03T04:12:18;6.80;78.60
7562;DHT22;3822;48.784;9.174;2023-04-03T04:14:47;6.80;79.00
7562;DHT22;3822;48.784;9.174;2023-04-03T04:17:13;6.80;79.30
7562;DHT22;3822;48.784;9.174;2023-04-03T04:19:44;6.80;78.90
7562;DHT22;3822;48.784;9.174;2023-04-03T04:22:10;6.80;78.80
7562;DHT22;3822;48.784;9.174;2023-04-03T04:24:44;6.80;78.70
7562;DHT22;3822;48.784;9.174;2023-04-03T04:27:11;6.80;78.60
7562;DHT22;3822;48.784;9.174;2023-04-03T04:29:37;6.90;78.70
7562;DHT22;3822;48.784;9.174;2023-04-03T04:32:06;6.90;78.70
7562;DHT22;3822;48.784;9.174;2023-04-03T04:34:33;7.00;78.80
7562;DHT22;3822;48.784;9.174;2023-04-03T04:37:00;7.00;78.80
7562;DHT22;3822;48.784;9.174;2023-04-03T04:39:33;7.00;78.60
7562;DHT22;3822;48.784;9.174;2023-04-03T04:42:00;7.10;77.70
7562;DHT22;3822;48.784;9.174;2023-04-03T04:44:26;7.00;77.70
7562;DHT22;3822;48.784;9.174;2023-04-03T04:46:53;7.00;77.00
7562;DHT22;3822;48.784;9.174;2023-04-03T04:49:24;7.00;77.40
7562;DHT22;3822;48.784;9.174;2023-04-03T04:51:50;7.00;77.70
7562;DHT22;3822;48.784;9.174;2023-04-03T04:54:22;7.00;77.60
7562;DHT22;3822;48.784;9.174;2023-04-03T04:56:49;7.00;77.60
7562;DHT22;3822;48.784;9.174;2023-04-03T04:59:16;7.00;77.40
7562;DHT22;3822;48.784;9.174;2023-04-03T05:01:46;7.00;77.30
7562;DHT22;3822;48.784;9.174;2023-04-03T05:04:12;7.10;77.10
7562;DHT22;3822;48.784;9.174;2023-04-03T05:06:39;7.00;76.80
7562;DHT22;3822;48.784;9.174;2023-04-03T05:09:05;7.00;77.20
7562;DHT22;3822;48.784;9.174;2023-04-03T05:11:34;7.00;77.10
7562;DHT22;3822;48.784;9.174;2023-04-03T05:14:00;7.00;76.80
7562;DHT22;3822;48.784;9.174;2023-04-03T05:16:26;7.10;76.60
7562;DHT22;3822;48.784;9.174;2023-04-03T05:18:53;7.10;76.60
7562;DHT22;3822;48.784;9.174;2023-04-03T05:21:22;8.00;77.50
7562;DHT22;3822;48.784;9.174;2023-04-03T05:23:50;7.10;76.00
7562;DHT22;3822;48.784;9.174;2023-04-03T05:26:17;7.10;75.60
7562;DHT22;3822;48.784;9.174;2023-04-03T05:28:46;7.00;75.30
7562;DHT22;3822;48.784;9.174;2023-04-03T05:31:12;7.00;75.20
7562;DHT22;3822;48.784;9.174;2023-04-03T05:33:38;7.00;74.90
7562;DHT22;3822;48.784;9.174;2023-04-03T05:36:05;6.90;74.70
7562;DHT22;3822;48.784;9.174;2023-04-03T05:38:38;6.80;75.20
7562;DHT22;3822;48.784;9.174;2023-04-03T05:41:05;6.80;75.40
7562;DHT22;3822;48.784;9.174;2023-04-03T05:43:33;6.80;75.90
7562;DHT22;3822;48.784;9.174;2023-04-03T05:46:08;6.80;75.60
7562;DHT22;3822;48.784;9.174;2023-04-03T05:48:38;6.80;75.70
7562;DHT22;3822;48.784;9.174;2023-04-03T05:51:13;6.80;76.80
7562;DHT22;3822;48.784;9.174;2023-04-03T05:53:47;6.80;75.80
7562;DHT22;3822;48.784;9.174;2023-04-03T05:56:16;6.70;75.60
7562;DHT22;3822;48.784;9.174;2023-04-03T05:58:47;6.70;75.00
7562;DHT22;3822;48.784;9.174;2023-04-03T06:01:15;6.60;75.00
7562;DHT22;3822;48.784;9.174;2023-04-03T06:03:47;6.60;75.20
7562;DHT22;3822;48.784;9.174;2023-04-03T06:06:14;6.60;75.60
7562;DHT22;3822;48.784;9.174;2023-04-03T06:08:49;6.60;75.10
7562;DHT22;3822;48.784;9.174;2023-04-03T06:11:16;6.60;75.40
7562;DHT22;3822;48.784;9.174;2023-04-03T06:13:45;6.60;75.20
7562;DHT22;3822;48.784;9.174;2023-04-03T06:16:12;6.60;75.00
7562;DHT22;3822;48.784;9.174;2023-04-03T06:18:41;6.50;74.90
7562;DHT22;3822;48.784;9.174;2023-04-03T06:27:52;6.50;75.50
7562;DHT22;3822;48.784;9.174;2023-04-03T06:30:21;6.50;75.50
7562;DHT22;3822;48.784;9.174;2023-04-03T06:32:47;6.40;75.60
7562;DHT22;3822;48.784;9.174;2023-04-03T06:35:16;6.50;75.90
7562;DHT22;3822;48.784;9.174;2023-04-03T06:37:45;6.50;76.00
7562;DHT22;3822;48.784;9.174;2023-04-03T06:40:18;6.40;75.80
7562;DHT22;3822;48.784;9.174;2023-04-03T06:42:47;6.50;76.10
7562;DHT22;3822;48.784;9.174;2023-04-03T06:45:13;6.50;76.30
7562;DHT22;3822;48.784;9.174;2023-04-03T06:47:40;6.60;76.50
7562;DHT22;3822;48.784;9.174;2023-04-03T06:50:06;6.60;77.30
7562;DHT22;3822;48.784;9.174;2023-04-03T06:52:33;6.60;77.60
7562;DHT22;3822;48.784;9.174;2023-04-03T06:54:59;6.60;77.20
7562;DHT22;3822;48.784;9.174;2023-04-03T06:57:29;6.60;77.30
7562;DHT22;3822;48.784;9.174;2023-04-03T06:59:55;6.70;77.30
7562;DHT22;3822;48.784;9.174;2023-04-03T07:02:26;6.60;77.10
7562;DHT22;3822;48.784;9.174;2023-04-03T07:04:56;6.60;77.50
7562;DHT22;3822;48.784;9.174;2023-04-03T07:07:22;6.70;77.60
7562;DHT22;3822;48.784;9.174;2023-04-03T07:09:49;6.80;77.80
7562;DHT22;3822;48.784;9.174;2023-04-03T07:12:17;6.80;77.70
7562;DHT22;3822;48.784;9.174;2023-04-03T07:14:44;6.80;77.40
7562;DHT22;3822;48.784;9.174;2023-04-03T07:17:12;6.90;77.30
7562;DHT22;3822;48.784;9.174;2023-04-03T07:19:39;6.90;77.40
7562;DHT22;3822;48.784;9.174;2023-04-03T07:22:05;6.90;77.10
7562;DHT22;3822;48.784;9.174;2023-04-03T07:24:31;6.90;77.20
7562;DHT22;3822;48.784;9.174;2023-04-03T07:26:57;6.90;77.10
7562;DHT22;3822;48.784;9.174;2023-04-03T07:29:24;6.90;77.00
7562;DHT22;3822;48.784;9.174;2023-04-03T07:31:52;7.00;77.40
7562;DHT22;3822;48.784;9.174;2023-04-03T07:34:21;7.00;77.10
7562;DHT22;3822;48.784;9.174;2023-04-03T07:36:47;7.00;76.80
7562;DHT22;3822;48.784;9.174;2023-04-03T07:39:13;7.00;77.10
7562;DHT22;3822;48.784;9.174;2023-04-03T07:41:40;7.00;76.90
7562;DHT22;3822;48.784;9.174;2023-04-03T07:44:06;7.00;76.90
7562;DHT22;3822;48.784;9.174;2023-04-03T07:46:35;7.10;76.90
7562;DHT22;3822;48.784;9.174;2023-04-03T07:49:02;7.10;76.90
7562;DHT22;3822;48.784;9.174;2023-04-03T07:51:28;7.10;76.80
7562;DHT22;3822;48.784;9.174;2023-04-03T07:53:57;7.10;76.80
7562;DHT22;3822;48.784;9.174;2023-04-03T07:56:26;7.20;76.90
7562;DHT22;3822;48.784;9.174;2023-04-03T07:58:52;7.20;76.50
7562;DHT22;3822;48.784;9.174;2023-04-03T08:01:19;7.10;76.70
7562;DHT22;3822;48.784;9.174;2023-04-03T08:03:45;7.20;76.70
7562;DHT22;3822;48.784;9.174;2023-04-03T08:06:14;7.10;76.50
7562;DHT22;3822;48.784;9.174;2023-04-03T08:08:45;7.10;77.00
7562;DHT22;3822;48.784;9.174;2023-04-03T08:11:16;7.10;77.30
7562;DHT22;3822;48.784;9.174;2023-04-03T08:13:44;7.20;77.40
7562;DHT22;3822;48.784;9.174;2023-04-03T08:16:17;7.20;77.40
7562;DHT22;3822;48.784;9.174;2023-04-03T08:18:48;7.20;77.40
7562;DHT22;3822;48.784;9.174;2023-04-03T08:21:14;7.30;77.60
7562;DHT22;3822;48.784;9.174;2023-04-03T08:23:41;7.30;77.70
7562;DHT22;3822;48.784;9.174;2023-04-03T08:26:13;7.20;77.50
7562;DHT22;3822;48.784;9.174;2023-04-03T08:28:41;7.30;77.80
7562;DHT22;3822;48.784;9.174;2023-04-03T08:31:12;7.20;77.50
7562;DHT22;3822;48.784;9.174;2023-04-03T08:33:43;7.30;77.70
7562;DHT22;3822;48.784;9.174;2023-04-03T08:36:20;7.30;77.30
7562;DHT22;3822;48.784;9.174;2023-04-03T08:38:50;7.30;77.20
7562;DHT22;3822;48.784;9.174;2023-04-03T08:52:14;7.40;77.00
7562;DHT22;3822;48.784;9.174;2023-04-03T08:57:17;7.50;76.90
7562;DHT22;3822;48.784;9.174;2023-04-03T08:59:49;7.50;76.80
7562;DHT22;3822;48.784;9.174;2023-04-03T09:02:35;7.50;76.70
7562;DHT22;3822;48.784;9.174;2023-04-03T09:05:12;7.50;77.20
7562;DHT22;3822;48.784;9.174;2023-04-03T09:07:49;7.60;77.10
7562;DHT22;3822;48.784;9.174;2023-04-03T09:10:24;7.60;76.70
7562;DHT22;3822;48.784;9.174;2023-04-03T09:12:57;7.60;76.70
7562;DHT22;3822;48.784;9.174;2023-04-03T09:15:37;7.60;76.50
7562;DHT22;3822;48.784;9.174;2023-04-03T09:21:25;8.90;76.90
7562;DHT22;3822;48.784;9.174;2023-04-03T09:23:57;7.60;75.50
7562;DHT22;3822;48.784;9.174;2023-04-03T09:26:33;7.60;75.30
7562;DHT22;3822;48.784;9.174;2023-04-03T09:29:05;7.60;74.80
7562;DHT22;3822;48.784;9.174;2023-04-03T09:31:39;7.70;75.20
7562;DHT22;3822;48.784;9.174;2023-04-03T09:36:44;7.80;75.60
7562;DHT22;3822;48.784;9.174;2023-04-03T09:39:25;7.80;75.50
7562;DHT22;3822;48.784;9.174;2023-04-03T09:44:23;7.90;75.10
7562;DHT22;3822;48.784;9.174;2023-04-03T09:46:52;7.90;75.10
7562;DHT22;3822;48.784;9.174;2023-04-03T09:49:18;7.90;74.60
7562;DHT22;3822;48.784;9.174;2023-04-03T09:51:45;7.80;74.60
7562;DHT22;3822;48.784;9.174;2023-04-03T09:57:11;7.90;74.30
7562;DHT22;3822;48.784;9.174;2023-04-03T09:59:46;7.90;73.50
7562;DHT22;3822;48.784;9.174;2023-04-03T10:05:03;7.80;73.00
7562;DHT22;3822;48.784;9.174;2023-04-03T10:12:40;7.90;73.50
7562;DHT22;3822;48.784;9.174;2023-04-03T10:15:11;7.90;73.50
7562;DHT22;3822;48.784;9.174;2023-04-03T10:20:28;7.80;73.10
7562;DHT22;3822;48.784;9.174;2023-04-03T10:23:05;7.90;73.30
7562;DHT22;3822;48.784;9.174;2023-04-03T10:25:59;7.90;73.10
7562;DHT22;3822;48.784;9.174;2023-04-03T10:28:36;8.00;72.50
7562;DHT22;3822;48.784;9.174;2023-04-03T10:39:23;8.20;72.00
7562;DHT22;3822;48.784;9.174;2023-04-03T10:42:02;8.20;71.40
7562;DHT22;3822;48.784;9.174;2023-04-03T10:47:19;8.30;71.30
7562;DHT22;3822;48.784;9.174;2023-04-03T10:50:00;8.40;71.40
7562;DHT22;3822;48.784;9.174;2023-04-03T10:55:30;8.30;70.60
7562;DHT22;3822;48.784;9.174;2023-04-03T10:57:58;8.40;70.10
7562;DHT22;3822;48.784;9.174;2023-04-03T11:00:36;8.30;70.20
7562;DHT22;3822;48.784;9.174;2023-04-03T11:03:06;8.30;70.30
7562;DHT22;3822;48.784;9.174;2023-04-03T11:05:41;8.40;70.30
7562;DHT22;3822;48.784;9.174;2023-04-03T11:11:17;8.40;68.00
7562;DHT22;3822;48.784;9.174;2023-04-03T11:13:58;8.40;69.10
7562;DHT22;3822;48.784;9.174;2023-04-03T11:16:28;8.50;69.10
7562;DHT22;3822;48.784;9.174;2023-04-03T11:19:04;8.50;67.80
7562;DHT22;3822;48.784;9.174;2023-04-03T11:21:51;8.40;67.10
7562;DHT22;3822;48.784;9.174;2023-04-03T11:24:23;8.50;66.60
7562;DHT22;3822;48.784;9.174;2023-04-03T11:26:52;8.40;65.40
7562;DHT22;3822;48.784;9.174;2023-04-03T11:29:24;8.40;64.90
7562;DHT22;3822;48.784;9.174;2023-04-03T11:37:05;8.30;65.60
7562;DHT22;3822;48.784;9.174;2023-04-03T11:39:38;8.30;65.80
7562;DHT22;3822;48.784;9.174;2023-04-03T11:42:15;8.30;65.60
7562;DHT22;3822;48.784;9.174;2023-04-03T11:44:42;8.30;65.50
7562;DHT22;3822;48.784;9.174;2023-04-03T11:47:11;8.20;65.80
7562;DHT22;3822;48.784;9.174;2023-04-03T11:49:51;8.30;65.90
7562;DHT22;3822;48.784;9.174;2023-04-03T12:05:56;8.40;64.50
7562;DHT22;3822;48.784;9.174;2023-04-03T12:18:59;8.50;64.70
7562;DHT22;3822;48.784;9.174;2023-04-03T12:32:22;8.50;63.90
7562;DHT22;3822;48.784;9.174;2023-04-03T12:34:56;8.60;64.40
7562;DHT22;3822;48.784;9.174;2023-04-03T12:45:56;8.70;63.30
7562;DHT22;3822;48.784;9.174;2023-04-03T12:53:59;8.80;63.90
7562;DHT22;3822;48.784;9.174;2023-04-03T12:56:31;8.70;61.50
7562;DHT22;3822;48.784;9.174;2023-04-03T12:59:19;8.70;61.50
7562;DHT22;3822;48.784;9.174;2023-04-03T13:01:54;8.60;61.60
7562;DHT22;3822;48.784;9.174;2023-04-03T13:04:21;8.70;62.60
7562;DHT22;3822;48.784;9.174;2023-04-03T13:06:48;8.70;62.30
7562;DHT22;3822;48.784;9.174;2023-04-03T13:09:18;8.80;62.80
7562;DHT22;3822;48.784;9.174;2023-04-03T13:12:01;8.80;62.10
7562;DHT22;3822;48.784;9.174;2023-04-03T13:14:32;8.90;62.00
7562;DHT22;3822;48.784;9.174;2023-04-03T13:17:02;8.80;60.30
7562;DHT22;3822;48.784;9.174;2023-04-03T13:19:32;8.80;59.40
7562;DHT22;3822;48.784;9.174;2023-04-03T13:22:01;8.80;60.30
7562;DHT22;3822;48.784;9.174;2023-04-03T13:24:30;8.90;60.60
7562;DHT22;3822;48.784;9.174;2023-04-03T13:26:59;9.00;61.00
7562;DHT22;3822;48.784;9.174;2023-04-03T13:29:35;9.00;60.00
7562;DHT22;3822;48.784;9.174;2023-04-03T13:32:03;9.00;60.90
7562;DHT22;3822;48.784;9.174;2023-04-03T13:34:35;9.10;60.50
7562;DHT22;3822;48.784;9.174;2023-04-03T13:37:25;9.10;59.80
7562;DHT22;3822;48.784;9.174;2023-04-03T13:39:56;9.20;60.10
7562;DHT22;3822;48.784;9.174;2023-04-03T13:42:28;9.20;59.20
7562;DHT22;3822;48.784;9.174;2023-04-03T13:47:39;9.20;59.30
7562;DHT22;3822;48.784;9.174;2023-04-03T13:50:15;9.30;59.60
7562;DHT22;3822;48.784;9.174;2023-04-03T13:55:27;9.40;58.00
7562;DHT22;3822;48.784;9.174;2023-04-03T13:57:59;9.50;58.90
7562;DHT22;3822;48.784;9.174;2023-04-03T14:00:48;9.60;58.20
7562;DHT22;3822;48.784;9.174;2023-04-03T14:05:54;9.60;56.50
7562;DHT22;3822;48.784;9.174;2023-04-03T14:08:21;9.60;56.90
7562;DHT22;3822;48.784;9.174;2023-04-03T14:10:49;9.70;57.20
7562;DHT22;3822;48.784;9.174;2023-04-03T14:13:17;9.70;57.00
7562;DHT22;3822;48.784;9.174;2023-04-03T14:15:46;9.80;57.40
7562;DHT22;3822;48.784;9.174;2023-04-03T14:18:17;9.80;56.80
7562;DHT22;3822;48.784;9.174;2023-04-03T14:20:46;9.90;57.20
7562;DHT22;3822;48.784;9.174;2023-04-03T14:23:14;9.90;56.60
7562;DHT22;3822;48.784;9.174;2023-04-03T14:25:43;9.80;56.40
7562;DHT22;3822;48.784;9.174;2023-04-03T14:28:28;10.00;55.50
7562;DHT22;3822;48.784;9.174;2023-04-03T14:30:54;9.70;55.40
7562;DHT22;3822;48.784;9.174;2023-04-03T14:33:22;9.80;56.10
7562;DHT22;3822;48.784;9.174;2023-04-03T14:35:51;10.40;55.80
7562;DHT22;3822;48.784;9.174;2023-04-03T14:38:27;9.80;56.40
7562;DHT22;3822;48.784;9.174;2023-04-03T14:40:56;9.80;56.20
7562;DHT22;3822;48.784;9.174;2023-04-03T14:43:23;9.80;55.60
7562;DHT22;3822;48.784;9.174;2023-04-03T14:45:53;9.80;55.70
7562;DHT22;3822;48.784;9.174;2023-04-03T14:48:22;9.80;55.30
7562;DHT22;3822;48.784;9.174;2023-04-03T14:50:51;9.90;56.00
7562;DHT22;3822;48.784;9.174;2023-04-03T14:53:20;10.00;54.00
7562;DHT22;3822;48.784;9.174;2023-04-03T14:55:52;10.20;54.00
7562;DHT22;3822;48.784;9.174;2023-04-03T14:58:21;10.30;54.00
7562;DHT22;3822;48.784;9.174;2023-04-03T15:00:48;10.30;52.60
7562;DHT22;3822;48.784;9.174;2023-04-03T15:03:21;10.30;52.20
7562;DHT22;3822;48.784;9.174;2023-04-03T15:05:49;10.40;53.40
7562;DHT22;3822;48.784;9.174;2023-04-03T15:08:26;10.40;52.50
7562;DHT22;3822;48.784;9.174;2023-04-03T15:10:55;10.40;52.50
7562;DHT22;3822;48.784;9.174;2023-04-03T15:13:23;10.40;52.60
7562;DHT22;3822;48.784;9.174;2023-04-03T15:15:51;10.40;51.00
7562;DHT22;3822;48.784;9.174;2023-04-03T15:18:24;10.40;51.30
7562;DHT22;3822;48.784;9.174;2023-04-03T15:20:57;10.30;50.40
7562;DHT22;3822;48.784;9.174;2023-04-03T15:23:23;10.30;51.30
7562;DHT22;3822;48.784;9.174;2023-04-03T15:25:54;10.30;51.40
7562;DHT22;3822;48.784;9.174;2023-04-03T15:28:33;10.30;51.50
7562;DHT22;3822;48.784;9.174;2023-04-03T15:31:07;10.40;50.00
7562;DHT22;3822;48.784;9.174;2023-04-03T15:33:36;10.30;48.30
7562;DHT22;3822;48.784;9.174;2023-04-03T15:36:05;10.20;48.40
7562;DHT22;3822;48.784;9.174;2023-04-03T15:38:32;10.10;49.50
7562;DHT22;3822;48.784;9.174;2023-04-03T15:40:58;10.10;49.00
7562;DHT22;3822;48.784;9.174;2023-04-03T15:43:25;10.10;49.70
7562;DHT22;3822;48.784;9.174;2023-04-03T15:45:56;10.10;48.90
7562;DHT22;3822;48.784;9.174;2023-04-03T15:48:27;10.30;50.40
7562;DHT22;3822;48.784;9.174;2023-04-03T15:50:54;10.80;51.10
7562;DHT22;3822;48.784;9.174;2023-04-03T15:53:24;10.20;49.80
7562;DHT22;3822;48.784;9.174;2023-04-03T15:55:53;10.30;50.60
7562;DHT22;3822;48.784;9.174;2023-04-03T15:58:19;10.40;50.20
7562;DHT22;3822;48.784;9.174;2023-04-03T16:00:46;10.50;49.40
7562;DHT22;3822;48.784;9.174;2023-04-03T16:03:16;11.00;49.20
7562;DHT22;3822;48.784;9.174;2023-04-03T16:05:44;10.70;48.50
7562;DHT22;3822;48.784;9.174;2023-04-03T16:08:11;10.80;49.30
7562;DHT22;3822;48.784;9.174;2023-04-03T16:10:38;10.90;48.20
7562;DHT22;3822;48.784;9.174;2023-04-03T16:13:07;11.00;48.50
7562;DHT22;3822;48.784;9.174;2023-04-03T16:15:35;11.10;48.20
7562;DHT22;3822;48.784;9.174;2023-04-03T16:18:03;11.20;47.80
7562;DHT22;3822;48.784;9.174;2023-04-03T16:20:34;11.20;47.30
7562;DHT22;3822;48.784;9.174;2023-04-03T16:23:01;11.20;46.90
7562;DHT22;3822;48.784;9.174;2023-04-03T16:25:28;11.20;46.60
7562;DHT22;3822;48.784;9.174;2023-04-03T16:27:57;11.20;45.70
7562;DHT22;3822;48.784;9.174;2023-04-03T16:30:26;11.30;47.20
7562;DHT22;3822;48.784;9.174;2023-04-03T16:32:52;11.30;47.40
7562;DHT22;3822;48.784;9.174;2023-04-03T16:35:19;11.40;47.20
7562;DHT22;3822;48.784;9.174;2023-04-03T16:37:48;11.50;47.70
7562;DHT22;3822;48.784;9.174;2023-04-03T16:40:15;12.00;48.20
7562;DHT22;3822;48.784;9.174;2023-04-03T16:42:41;11.60;45.70
7562;DHT22;3822;48.784;9.174;2023-04-03T16:45:10;11.50;46.00
7562;DHT22;3822;48.784;9.174;2023-04-03T16:47:36;11.60;46.70
7562;DHT22;3822;48.784;9.174;2023-04-03T16:50:03;11.60;46.50
7562;DHT22;3822;48.784;9.174;2023-04-03T16:52:30;11.70;46.80
7562;DHT22;3822;48.784;9.174;2023-04-03T16:54:56;11.80;47.30
7562;DHT22;3822;48.784;9.174;2023-04-03T16:57:25;11.90;47.70
7562;DHT22;3822;48.784;9.174;2023-04-03T16:59:54;12.10;47.50
7562;DHT22;3822;48.784;9.174;2023-04-03T17:02:22;12.10;46.30
7562;DHT22;3822;48.784;9.174;2023-04-03T17:04:51;12.20;46.90
7562;DHT22;3822;48.784;9.174;2023-04-03T17:07:21;12.30;46.40
7562;DHT22;3822;48.784;9.174;2023-04-03T17:09:49;12.30;45.20
7562;DHT22;3822;48.784;9.174;2023-04-03T17:12:20;12.20;43.70
7562;DHT22;3822;48.784;9.174;2023-04-03T17:14:50;12.00;43.70
7562;DHT22;3822;48.784;9.174;2023-04-03T17:17:22;11.90;43.80
7562;DHT22;3822;48.784;9.174;2023-04-03T17:19:50;11.80;43.60
7562;DHT22;3822;48.784;9.174;2023-04-03T17:22:16;11.70;44.80
7562;DHT22;3822;48.784;9.174;2023-04-03T17:24:45;11.70;44.60
7562;DHT22;3822;48.784;9.174;2023-04-03T17:27:12;12.50;45.80
7562;DHT22;3822;48.784;9.174;2023-04-03T17:29:38;11.60;45.00
7562;DHT22;3822;48.784;9.174;2023-04-03T17:32:05;11.60;45.50
7562;DHT22;3822;48.784;9.174;2023-04-03T17:34:31;11.60;45.10
7562;DHT22;3822;48.784;9.174;2023-04-03T17:36:58;11.50;44.80
7562;DHT22;3822;48.784;9.174;2023-04-03T17:39:25;11.40;44.40
7562;DHT22;3822;48.784;9.174;2023-04-03T17:41:51;11.30;45.00
7562;DHT22;3822;48.784;9.174;2023-04-03T17:44:20;11.30;45.20
7562;DHT22;3822;48.784;9.174;2023-04-03T17:46:47;11.20;45.20
7562;DHT22;3822;48.784;9.174;2023-04-03T17:49:13;11.10;44.90
7562;DHT22;3822;48.784;9.174;2023-04-03T17:51:43;11.30;44.80
7562;DHT22;3822;48.784;9.174;2023-04-03T17:54:10;10.90;45.10
7562;DHT22;3822;48.784;9.174;2023-04-03T17:56:40;11.00;45.40
7562;DHT22;3822;48.784;9.174;2023-04-03T17:59:16;11.10;45.70
7562;DHT22;3822;48.784;9.174;2023-04-03T18:01:44;10.80;45.40
7562;DHT22;3822;48.784;9.174;2023-04-03T18:04:13;10.70;45.60
7562;DHT22;3822;48.784;9.174;2023-04-03T18:06:43;10.60;45.20
7562;DHT22;3822;48.784;9.174;2023-04-03T18:09:28;10.50;45.60
7562;DHT22;3822;48.784;9.174;2023-04-03T18:12:00;10.30;45.60
7562;DHT22;3822;48.784;9.174;2023-04-03T18:14:34;10.30;46.20
7562;DHT22;3822;48.784;9.174;2023-04-03T18:17:02;10.20;46.10
7562;DHT22;3822;48.784;9.174;2023-04-03T18:19:29;10.10;46.40
7562;DHT22;3822;48.784;9.174;2023-04-03T18:21:58;10.00;45.90
7562;DHT22;3822;48.784;9.174;2023-04-03T18:24:26;10.10;46.50
7562;DHT22;3822;48.784;9.174;2023-04-03T18:26:58;9.80;47.70
7562;DHT22;3822;48.784;9.174;2023-04-03T18:29:31;9.60;48.00
7562;DHT22;3822;48.784;9.174;2023-04-03T18:32:05;9.70;48.30
7562;DHT22;3822;48.784;9.174;2023-04-03T18:34:35;9.50;48.10
7562;DHT22;3822;48.784;9.174;2023-04-03T18:37:02;9.40;48.20
7562;DHT22;3822;48.784;9.174;2023-04-03T18:39:29;9.30;48.50